Time;durP1;ratioP1;P1;durP2;ratioP2;P2;SDS_P1;SDS_P2;PMS_P1;PMS_P2;Temp;Humidity;BMP_temperature;BMP_pressure;BME280_temperature;BME280_humidity;BME280_pressure;Samples;Min_cycle;Max_cycle;Signal;HPM_P1;HPM_P2
2023/05/04 00:02:18;;;;;;;8.60;5.78;;;7.00;99.90;;;;;;5096453;28;20058;-64
2023/05/04 00:04:44;;;;;;;7.80;6.15;;;7.00;99.90;;;;;;5096288;28;20048;-64
2023/05/04 00:07:11;;;;;;;7.80;5.05;;;7.00;99.90;;;;;;5096985;28;20040;-64
2023/05/04 00:09:37;;;;;;;7.20;5.25;;;7.00;99.90;;;;;;5114536;28;20477;-63
2023/05/04 00:12:04;;;;;;;8.57;5.82;;;6.90;99.90;;;;;;5096620;28;20055;-63
2023/05/04 00:14:30;;;;;;;7.85;5.40;;;7.00;99.90;;;;;;5114687;28;20052;-63
2023/05/04 00:16:56;;;;;;;7.63;5.55;;;6.90;99.90;;;;;;5096852;28;20410;-62
2023/05/04 00:19:23;;;;;;;7.72;5.25;;;6.90;99.90;;;;;;5096280;28;20048;-62
2023/05/04 00:21:49;;;;;;;12.02;6.03;;;6.90;99.90;;;;;;5114058;28;20104;-63
2023/05/04 00:24:15;;;;;;;10.57;5.60;;;6.80;99.90;;;;;;5096093;28;20059;-64
2023/05/04 00:26:41;;;;;;;5.97;4.72;;;6.90;99.90;;;;;;5113945;28;20419;-64
2023/05/04 00:29:08;;;;;;;7.00;5.72;;;6.80;99.90;;;;;;5114293;28;20375;-63
2023/05/04 00:31:34;;;;;;;8.57;5.57;;;6.80;99.90;;;;;;5095764;28;20465;-65
2023/05/04 00:34:00;;;;;;;9.30;5.40;;;6.80;99.90;;;;;;5079122;28;20043;-63
2023/05/04 00:36:26;;;;;;;8.80;5.57;;;6.70;99.90;;;;;;5096319;28;20047;-63
2023/05/04 00:38:54;;;;;;;9.02;5.35;;;6.80;99.90;;;;;;5096241;28;20420;-65
2023/05/04 00:41:20;;;;;;;9.52;5.13;;;6.70;99.90;;;;;;5095611;28;20055;-63
2023/05/04 00:43:47;;;;;;;14.98;6.97;;;6.70;99.90;;;;;;5113586;28;20371;-64
2023/05/04 00:46:14;;;;;;;9.80;5.60;;;6.60;99.90;;;;;;5078962;28;20093;-64
2023/05/04 00:48:41;;;;;;;8.13;5.65;;;6.70;99.90;;;;;;5114151;28;20047;-63
2023/05/04 00:51:10;;;;;;;8.48;5.35;;;6.60;99.90;;;;;;5095589;28;20055;-63
2023/05/04 00:53:38;;;;;;;10.18;5.63;;;6.60;99.90;;;;;;5095526;28;20047;-63
2023/05/04 00:56:06;;;;;;;7.38;5.55;;;6.60;99.90;;;;;;5113167;28;20044;-63
2023/05/04 00:58:33;;;;;;;9.02;5.70;;;6.50;99.90;;;;;;5113670;28;20062;-63
2023/05/04 01:01:02;;;;;;;8.70;5.78;;;6.50;99.90;;;;;;5095717;28;20048;-63
2023/05/04 01:03:30;;;;;;;7.88;5.40;;;6.50;99.90;;;;;;5113486;28;20044;-63
2023/05/04 01:06:29;;;;;;;9.13;5.60;;;6.50;99.90;;;;;;5113553;28;20048;-63
2023/05/04 01:09:18;;;;;;;7.90;5.30;;;6.50;99.90;;;;;;5095417;28;20051;-63
2023/05/04 01:11:53;;;;;;;9.38;5.15;;;6.40;99.90;;;;;;5095125;28;20047;-64
2023/05/04 01:14:21;;;;;;;10.65;5.63;;;6.40;99.90;;;;;;5095395;28;20693;-63
2023/05/04 01:16:49;;;;;;;11.43;5.95;;;6.50;99.90;;;;;;5113566;28;20050;-63
2023/05/04 01:19:15;;;;;;;9.63;5.88;;;6.40;99.90;;;;;;5113373;28;20056;-63
2023/05/04 01:21:41;;;;;;;10.52;5.68;;;6.40;99.90;;;;;;5094761;28;20355;-64
2023/05/04 01:24:08;;;;;;;10.18;6.18;;;6.40;99.90;;;;;;5095011;28;20048;-63
2023/05/04 01:26:40;;;;;;;9.75;5.50;;;6.40;99.90;;;;;;5095112;28;20048;-63
2023/05/04 01:29:14;;;;;;;9.95;5.45;;;6.40;99.90;;;;;;5095105;28;20096;-63
2023/05/04 01:31:43;;;;;;;10.82;5.35;;;6.30;99.90;;;;;;5112742;28;20066;-63
2023/05/04 01:34:10;;;;;;;10.70;6.15;;;6.40;99.90;;;;;;5112786;28;20374;-63
2023/05/04 01:36:37;;;;;;;10.80;5.30;;;6.40;99.90;;;;;;5095265;28;20047;-63
2023/05/04 01:39:03;;;;;;;11.25;5.65;;;6.30;99.90;;;;;;5095272;28;20055;-63
2023/05/04 01:41:30;;;;;;;9.82;6.13;;;6.40;99.90;;;;;;5094792;28;20094;-63
2023/05/04 01:43:57;;;;;;;12.10;5.82;;;6.30;99.90;;;;;;5094948;28;20051;-63
2023/05/04 01:46:23;;;;;;;7.35;5.03;;;6.30;99.90;;;;;;5095116;28;20052;-63
2023/05/04 01:48:49;;;;;;;11.05;5.85;;;6.30;99.90;;;;;;5095293;28;20048;-63
2023/05/04 01:51:16;;;;;;;10.32;6.18;;;6.30;99.90;;;;;;5112369;28;20394;-64
2023/05/04 01:53:42;;;;;;;11.02;6.50;;;6.20;99.90;;;;;;5112825;28;20036;-63
2023/05/04 01:56:08;;;;;;;8.77;5.70;;;6.30;99.90;;;;;;5095245;28;20052;-63
2023/05/04 01:58:35;;;;;;;9.45;6.00;;;6.30;99.90;;;;;;5113083;28;20062;-63
2023/05/04 02:01:01;;;;;;;9.20;5.60;;;6.20;99.90;;;;;;5112404;28;20120;-63
2023/05/04 02:03:27;;;;;;;10.93;6.60;;;6.20;99.90;;;;;;5112568;28;20413;-64
2023/05/04 02:05:54;;;;;;;8.80;5.03;;;6.20;99.90;;;;;;5094521;28;20478;-63
2023/05/04 02:08:20;;;;;;;10.07;6.45;;;6.20;99.90;;;;;;5098399;28;20440;-62
2023/05/04 02:10:47;;;;;;;8.95;5.75;;;6.20;99.90;;;;;;5116501;28;20055;-63
2023/05/04 02:13:13;;;;;;;9.15;6.93;;;6.20;99.90;;;;;;5098772;28;20044;-64
2023/05/04 02:15:40;;;;;;;9.73;6.38;;;6.20;99.90;;;;;;5117048;28;20109;-64
2023/05/04 02:18:06;;;;;;;11.07;5.47;;;6.20;99.90;;;;;;5117059;28;20058;-63
2023/05/04 02:20:32;;;;;;;8.77;5.65;;;6.20;99.90;;;;;;5116154;28;20460;-64
2023/05/04 02:22:59;;;;;;;10.52;7.57;;;6.20;99.90;;;;;;5098513;28;20044;-63
2023/05/04 02:25:25;;;;;;;9.10;5.75;;;6.20;99.90;;;;;;5098561;28;20056;-64
2023/05/04 02:27:51;;;;;;;10.23;6.18;;;6.20;99.90;;;;;;5116582;28;20047;-64
2023/05/04 02:30:18;;;;;;;11.25;6.13;;;6.20;99.90;;;;;;5116464;28;20460;-63
2023/05/04 02:32:44;;;;;;;11.40;6.55;;;6.20;99.90;;;;;;5116652;28;20048;-62
2023/05/04 02:35:11;;;;;;;9.50;6.55;;;6.20;99.90;;;;;;5098467;28;20055;-63
2023/05/04 02:37:38;;;;;;;10.68;6.25;;;6.20;99.90;;;;;;5116700;28;20469;-62
2023/05/04 02:40:04;;;;;;;10.43;6.55;;;6.20;99.90;;;;;;5116174;28;20043;-63
2023/05/04 02:42:31;;;;;;;9.85;6.13;;;6.20;99.90;;;;;;5116711;28;20184;-63
2023/05/04 02:44:57;;;;;;;11.48;6.65;;;6.20;99.90;;;;;;5098039;28;20048;-62
2023/05/04 02:47:23;;;;;;;10.05;6.93;;;6.20;99.90;;;;;;5098187;28;20043;-62
2023/05/04 02:49:50;;;;;;;10.10;6.68;;;6.20;99.90;;;;;;5115776;28;20054;-62
2023/05/04 02:52:16;;;;;;;10.75;6.90;;;6.20;99.90;;;;;;5098120;28;20051;-63
2023/05/04 02:54:42;;;;;;;8.85;6.25;;;6.20;99.90;;;;;;5116218;28;20040;-63
2023/05/04 02:57:08;;;;;;;8.68;5.93;;;6.20;99.90;;;;;;5116297;28;20044;-62
2023/05/04 02:59:35;;;;;;;10.82;6.78;;;6.20;99.90;;;;;;5115853;28;20047;-63
2023/05/04 03:02:01;;;;;;;10.23;6.35;;;6.20;99.90;;;;;;5098279;28;20066;-63
2023/05/04 03:04:27;;;;;;;13.40;7.13;;;6.20;99.90;;;;;;5115340;28;20517;-63
2023/05/04 03:06:53;;;;;;;9.27;5.97;;;6.30;99.90;;;;;;5115830;28;20062;-64
2023/05/04 03:09:20;;;;;;;13.50;7.35;;;6.20;99.90;;;;;;5097957;28;20047;-62
2023/05/04 03:11:46;;;;;;;10.50;6.13;;;6.30;99.90;;;;;;5115441;28;20054;-63
2023/05/04 03:14:12;;;;;;;9.77;6.38;;;6.20;99.90;;;;;;5115724;28;20047;-63
2023/05/04 03:16:38;;;;;;;13.23;7.25;;;6.30;99.90;;;;;;5116049;28;20039;-63
2023/05/04 03:19:04;;;;;;;10.95;6.65;;;6.30;99.90;;;;;;5114744;28;20047;-63
2023/05/04 03:21:31;;;;;;;11.02;7.00;;;6.30;99.90;;;;;;5097048;28;20052;-62
2023/05/04 03:23:57;;;;;;;14.05;7.03;;;6.30;99.90;;;;;;5115556;28;20176;-64
2023/05/04 03:26:24;;;;;;;12.35;6.72;;;6.30;99.90;;;;;;5091855;28;20091;-63
2023/05/04 03:28:50;;;;;;;8.93;6.38;;;6.30;99.90;;;;;;5094936;28;20431;-63
2023/05/04 03:31:16;;;;;;;11.32;6.80;;;6.30;99.90;;;;;;5076793;28;20060;-63
2023/05/04 03:33:42;;;;;;;10.77;6.82;;;6.20;99.90;;;;;;5094347;28;20357;-63
2023/05/04 03:36:09;;;;;;;10.98;6.10;;;6.20;99.90;;;;;;5095084;28;20448;-63
2023/05/04 03:38:35;;;;;;;11.85;6.68;;;6.20;99.90;;;;;;5077272;28;20341;-64
2023/05/04 03:41:01;;;;;;;10.65;7.25;;;6.10;99.90;;;;;;5094806;28;20427;-63
2023/05/04 03:43:27;;;;;;;11.23;6.88;;;6.20;99.90;;;;;;5094697;28;20513;-63
2023/05/04 03:45:54;;;;;;;8.93;6.63;;;6.10;99.90;;;;;;5095149;28;20040;-63
2023/05/04 03:48:20;;;;;;;14.05;7.18;;;6.20;99.90;;;;;;5094579;28;20407;-63
2023/05/04 03:50:46;;;;;;;12.48;7.20;;;6.10;99.90;;;;;;5076727;28;20368;-63
2023/05/04 03:53:13;;;;;;;12.30;7.57;;;6.10;99.90;;;;;;5094358;28;20048;-64
2023/05/04 03:55:39;;;;;;;9.73;7.10;;;6.10;99.90;;;;;;5094744;28;20052;-63
2023/05/04 03:58:05;;;;;;;11.70;7.05;;;6.10;99.90;;;;;;5094409;28;20056;-64
2023/05/04 04:00:32;;;;;;;11.55;6.68;;;6.10;99.90;;;;;;5076279;28;20361;-62
2023/05/04 04:02:58;;;;;;;13.55;7.85;;;6.20;99.90;;;;;;5094277;28;20523;-62
2023/05/04 04:05:24;;;;;;;12.57;7.10;;;6.10;99.90;;;;;;5076178;28;20079;-64
2023/05/04 04:07:51;;;;;;;10.23;6.97;;;6.10;99.90;;;;;;5094573;28;20052;-63
2023/05/04 04:10:17;;;;;;;11.13;6.97;;;6.10;99.90;;;;;;5076408;28;20071;-63
2023/05/04 04:12:43;;;;;;;13.18;6.85;;;6.10;99.90;;;;;;5093919;28;20048;-63
2023/05/04 04:15:10;;;;;;;11.35;6.95;;;6.10;99.90;;;;;;5094561;28;20059;-63
2023/05/04 04:17:36;;;;;;;14.15;6.85;;;6.00;99.90;;;;;;5094466;28;20066;-64
2023/05/04 04:20:03;;;;;;;10.77;6.97;;;6.10;99.90;;;;;;5075989;28;20102;-63
2023/05/04 04:22:29;;;;;;;10.77;7.38;;;6.00;99.90;;;;;;5094251;28;20490;-62
2023/05/04 04:24:55;;;;;;;12.85;7.20;;;6.10;99.90;;;;;;5075460;28;20060;-62
2023/05/04 04:27:22;;;;;;;12.30;7.95;;;6.10;99.90;;;;;;5089486;28;20054;-63
2023/05/04 04:29:48;;;;;;;8.73;6.70;;;6.10;99.90;;;;;;5113547;28;20064;-64
2023/05/04 04:32:14;;;;;;;10.10;6.88;;;6.10;99.90;;;;;;5114146;28;20043;-63
2023/05/04 04:34:42;;;;;;;12.50;7.85;;;6.10;99.90;;;;;;5124436;27;20039;-63
2023/05/04 04:37:08;;;;;;;14.20;7.90;;;6.20;99.90;;;;;;5116440;27;20482;-62
2023/05/04 04:39:34;;;;;;;9.90;6.72;;;6.10;99.90;;;;;;5134443;27;20062;-64
2023/05/04 04:42:01;;;;;;;11.38;7.00;;;6.10;99.90;;;;;;5116457;27;20047;-63
2023/05/04 04:44:28;;;;;;;12.85;7.03;;;6.10;99.90;;;;;;5121852;27;20481;-63
2023/05/04 04:46:54;;;;;;;12.20;7.35;;;6.20;99.90;;;;;;5113973;28;20051;-64
2023/05/04 04:49:20;;;;;;;13.38;7.47;;;6.20;99.90;;;;;;5113821;28;20051;-63
2023/05/04 04:51:47;;;;;;;12.00;6.85;;;6.20;99.90;;;;;;5113510;28;20459;-62
2023/05/04 04:54:14;;;;;;;13.68;6.85;;;6.30;99.90;;;;;;5105584;27;20463;-63
2023/05/04 04:56:40;;;;;;;13.25;7.45;;;6.40;99.90;;;;;;5108773;27;20062;-63
2023/05/04 04:59:06;;;;;;;13.10;6.68;;;6.30;99.90;;;;;;5086569;28;20467;-63
2023/05/04 05:01:33;;;;;;;10.88;7.13;;;6.40;99.90;;;;;;5094745;28;20124;-63
2023/05/04 05:03:59;;;;;;;13.95;7.45;;;6.40;99.90;;;;;;5117004;27;20054;-64
2023/05/04 05:06:25;;;;;;;11.32;7.07;;;6.50;99.90;;;;;;5117118;27;20085;-63
2023/05/04 05:08:52;;;;;;;12.98;6.97;;;6.60;99.90;;;;;;5118760;27;20043;-62
2023/05/04 05:11:18;;;;;;;13.23;7.03;;;6.60;99.90;;;;;;5102629;27;20040;-63
2023/05/04 05:13:44;;;;;;;12.82;7.38;;;6.70;99.90;;;;;;5121331;27;20043;-63
2023/05/04 05:16:10;;;;;;;11.70;6.85;;;6.80;99.90;;;;;;5102690;28;20055;-62
2023/05/04 05:18:37;;;;;;;12.75;7.25;;;6.90;99.90;;;;;;5105407;27;20047;-63
2023/05/04 05:21:04;;;;;;;10.30;7.03;;;7.00;99.90;;;;;;5104838;27;20109;-62
2023/05/04 05:23:30;;;;;;;11.63;7.38;;;7.30;99.90;;;;;;5102031;27;20039;-63
2023/05/04 05:25:56;;;;;;;12.98;6.88;;;7.40;99.90;;;;;;5101401;28;20109;-63
2023/05/04 05:28:22;;;;;;;13.43;7.07;;;7.50;99.90;;;;;;5074784;28;20044;-63
2023/05/04 05:30:50;;;;;;;13.45;8.85;;;7.60;99.90;;;;;;5091702;28;20109;-63
2023/05/04 05:33:17;;;;;;;12.88;7.70;;;7.70;99.90;;;;;;5087509;28;20461;-64
2023/05/04 05:35:43;;;;;;;11.48;7.75;;;7.80;99.90;;;;;;5088407;28;20524;-63
2023/05/04 05:38:10;;;;;;;12.02;7.85;;;7.90;99.90;;;;;;5072088;28;20051;-63
2023/05/04 05:40:36;;;;;;;12.82;7.25;;;8.30;99.90;;;;;;5092149;28;20044;-63
2023/05/04 05:43:04;;;;;;;12.30;7.60;;;8.60;99.90;;;;;;5092295;28;20088;-63
2023/05/04 05:45:31;;;;;;;13.65;7.85;;;8.90;99.90;;;;;;5092561;28;20121;-62
2023/05/04 05:47:57;;;;;;;12.73;7.47;;;9.10;99.90;;;;;;5075016;28;20048;-63
2023/05/04 05:50:23;;;;;;;13.70;7.13;;;9.20;99.90;;;;;;5074130;28;20044;-63
2023/05/04 05:52:50;;;;;;;11.93;7.82;;;9.30;99.90;;;;;;5092294;28;20105;-62
2023/05/04 05:55:16;;;;;;;13.60;7.35;;;9.60;99.90;;;;;;5092378;28;20048;-63
2023/05/04 05:57:42;;;;;;;11.48;7.75;;;9.60;99.90;;;;;;5092308;28;20052;-62
2023/05/04 06:00:09;;;;;;;10.90;7.72;;;9.50;99.90;;;;;;5091992;28;20040;-64
2023/05/04 06:02:35;;;;;;;11.68;7.40;;;9.60;99.90;;;;;;5092565;28;20048;-63
2023/05/04 06:05:01;;;;;;;12.82;8.32;;;10.00;99.90;;;;;;5074209;28;20052;-63
2023/05/04 06:07:28;;;;;;;11.60;7.35;;;10.50;99.90;;;;;;5074414;28;20052;-63
2023/05/04 06:09:55;;;;;;;11.80;6.53;;;10.90;99.90;;;;;;5090274;28;20044;-63
2023/05/04 06:12:21;;;;;;;12.05;7.55;;;11.10;99.90;;;;;;5090375;28;20048;-63
2023/05/04 06:14:47;;;;;;;12.50;7.07;;;11.20;99.90;;;;;;5072469;28;20060;-63
2023/05/04 06:17:14;;;;;;;10.85;7.60;;;11.10;99.90;;;;;;5072802;28;20055;-63
2023/05/04 06:19:40;;;;;;;10.45;7.47;;;11.00;99.90;;;;;;5089843;28;20537;-63
2023/05/04 06:22:07;;;;;;;11.40;7.70;;;11.60;99.90;;;;;;5055936;28;20523;-63
2023/05/04 06:24:33;;;;;;;9.20;6.68;;;11.80;99.90;;;;;;5091822;28;20052;-62
2023/05/04 06:27:00;;;;;;;10.82;8.00;;;11.90;99.90;;;;;;5112900;28;20366;-62
2023/05/04 06:29:26;;;;;;;10.77;7.22;;;11.90;99.90;;;;;;5132733;28;20084;-63
2023/05/04 06:31:53;;;;;;;10.52;7.03;;;12.00;99.90;;;;;;5115167;28;20478;-63
2023/05/04 06:34:20;;;;;;;12.88;6.78;;;12.10;99.90;;;;;;5132598;28;20458;-61
2023/05/04 06:36:47;;;;;;;11.55;7.65;;;11.90;99.90;;;;;;5133036;28;20120;-63
2023/05/04 06:39:14;;;;;;;12.35;6.88;;;11.80;99.90;;;;;;5133194;28;20066;-63
2023/05/04 06:41:41;;;;;;;9.43;6.70;;;11.70;99.90;;;;;;5133092;28;20059;-63
2023/05/04 06:44:07;;;;;;;14.30;7.68;;;11.80;99.90;;;;;;5114614;28;20069;-63
2023/05/04 06:46:36;;;;;;;10.68;7.25;;;11.80;99.90;;;;;;5133324;28;20058;-63
2023/05/04 06:49:05;;;;;;;11.63;7.35;;;12.00;99.90;;;;;;5115502;28;20051;-62
2023/05/04 06:51:34;;;;;;;10.50;7.13;;;11.80;99.90;;;;;;5114636;28;20130;-62
2023/05/04 06:54:01;;;;;;;13.00;7.35;;;11.80;99.90;;;;;;5135331;27;20042;-63
2023/05/04 06:56:28;;;;;;;13.82;8.00;;;11.60;99.90;;;;;;5136774;27;20047;-62
2023/05/04 06:58:54;;;;;;;11.70;7.22;;;11.50;99.90;;;;;;5136696;27;20055;-62
2023/05/04 07:01:20;;;;;;;14.85;8.52;;;11.50;99.90;;;;;;5136569;27;20051;-62
2023/05/04 07:03:47;;;;;;;10.90;7.28;;;11.30;99.90;;;;;;5136179;27;20061;-63
2023/05/04 07:06:13;;;;;;;14.40;8.73;;;11.40;99.90;;;;;;5118422;27;20416;-62
2023/05/04 07:08:40;;;;;;;11.60;7.40;;;11.40;99.90;;;;;;5136306;27;20044;-62
2023/05/04 07:11:09;;;;;;;10.18;7.15;;;11.60;99.90;;;;;;5117867;27;20055;-63
2023/05/04 07:13:35;;;;;;;9.25;6.85;;;11.90;99.90;;;;;;5135616;27;20088;-63
2023/05/04 07:16:01;;;;;;;14.13;7.40;;;12.00;99.90;;;;;;5118031;27;20059;-62
2023/05/04 07:18:27;;;;;;;8.93;7.75;;;12.10;99.90;;;;;;5135735;27;20378;-63
2023/05/04 07:20:54;;;;;;;11.32;7.32;;;12.10;99.90;;;;;;5117352;27;20062;-63
2023/05/04 07:23:20;;;;;;;14.95;7.05;;;12.30;99.90;;;;;;5135646;27;20100;-62
2023/05/04 07:25:46;;;;;;;11.38;7.30;;;12.50;99.90;;;;;;5135562;27;20051;-63
2023/05/04 07:28:13;;;;;;;10.02;6.68;;;12.60;99.90;;;;;;5117371;27;20044;-63
2023/05/04 07:30:39;;;;;;;11.93;7.60;;;12.50;99.90;;;;;;5135345;27;20055;-62
2023/05/04 07:33:06;;;;;;;9.52;6.78;;;12.50;99.90;;;;;;5117328;27;20047;-62
2023/05/04 07:35:32;;;;;;;12.88;7.72;;;12.50;99.90;;;;;;5117609;27;20058;-61
2023/05/04 07:37:58;;;;;;;11.77;7.30;;;12.50;99.90;;;;;;5117532;27;20043;-62
2023/05/04 07:40:24;;;;;;;11.63;7.18;;;12.40;99.90;;;;;;5117134;27;20047;-62
2023/05/04 07:42:51;;;;;;;11.30;6.85;;;12.50;99.90;;;;;;5117383;27;20058;-61
2023/05/04 07:45:17;;;;;;;13.77;7.78;;;12.60;99.90;;;;;;5135342;27;20054;-62
2023/05/04 07:47:43;;;;;;;10.55;6.85;;;12.70;99.90;;;;;;5135745;27;20047;-62
2023/05/04 07:50:10;;;;;;;10.10;6.72;;;12.60;99.90;;;;;;5117052;27;20062;-63
2023/05/04 07:52:37;;;;;;;13.00;8.73;;;12.70;99.90;;;;;;5117359;27;20373;-63
2023/05/04 07:55:03;;;;;;;11.25;6.90;;;12.70;99.90;;;;;;5117391;27;20059;-62
2023/05/04 07:57:31;;;;;;;10.50;6.88;;;12.70;99.90;;;;;;5135138;27;20051;-62
2023/05/04 07:59:57;;;;;;;10.05;6.85;;;12.70;99.90;;;;;;5116621;27;20050;-63
2023/05/04 08:02:23;;;;;;;12.52;7.30;;;12.80;99.90;;;;;;5117001;27;20054;-64
2023/05/04 08:04:49;;;;;;;9.70;6.70;;;13.10;99.90;;;;;;5134066;27;20527;-63
2023/05/04 08:07:16;;;;;;;8.25;6.85;;;13.20;99.90;;;;;;5116931;27;20043;-62
2023/05/04 08:09:42;;;;;;;10.30;7.90;;;13.30;99.90;;;;;;5134964;27;20424;-63
2023/05/04 08:12:10;;;;;;;9.00;7.25;;;13.60;99.90;;;;;;5116842;27;20486;-63
2023/05/04 08:14:38;;;;;;;11.32;6.82;;;13.70;99.90;;;;;;5116698;27;20103;-62
2023/05/04 08:17:04;;;;;;;13.95;7.00;;;13.80;99.90;;;;;;5134910;27;20355;-63
2023/05/04 08:19:30;;;;;;;11.80;7.35;;;13.70;99.90;;;;;;5116459;27;20096;-63
2023/05/04 08:21:56;;;;;;;10.65;7.97;;;13.80;99.90;;;;;;5134565;27;20434;-62
2023/05/04 08:24:22;;;;;;;8.05;7.13;;;13.90;99.90;;;;;;5134280;27;20370;-63
2023/05/04 08:26:49;;;;;;;9.80;6.35;;;13.90;99.90;;;;;;5134328;27;20104;-64
2023/05/04 08:29:15;;;;;;;11.93;7.05;;;14.00;99.90;;;;;;5116413;27;20043;-63
2023/05/04 08:31:41;;;;;;;10.32;6.82;;;14.00;99.90;;;;;;5135064;27;20474;-63
2023/05/04 08:34:08;;;;;;;10.50;7.63;;;14.10;99.90;;;;;;5134644;27;20476;-63
2023/05/04 08:36:34;;;;;;;10.77;7.15;;;14.20;99.90;;;;;;5134634;27;20235;-62
2023/05/04 08:39:00;;;;;;;8.35;6.22;;;14.20;99.90;;;;;;5134929;27;20051;-64
2023/05/04 08:41:26;;;;;;;9.77;7.13;;;14.30;99.90;;;;;;5099572;27;20159;-63
2023/05/04 08:43:53;;;;;;;9.98;6.93;;;14.30;99.90;;;;;;5116020;27;20058;-64
2023/05/04 08:46:19;;;;;;;9.82;6.70;;;14.50;99.90;;;;;;5116060;27;20043;-64
2023/05/04 08:48:46;;;;;;;9.82;7.65;;;14.50;99.90;;;;;;5134518;27;20071;-63
2023/05/04 08:51:13;;;;;;;8.02;6.20;;;14.70;99.90;;;;;;5116006;27;20051;-64
2023/05/04 08:53:42;;;;;;;10.45;7.40;;;14.90;99.90;;;;;;5134007;27;20043;-64
2023/05/04 08:56:12;;;;;;;9.50;6.68;;;15.00;99.90;;;;;;5134216;27;20064;-64
2023/05/04 08:58:51;;;;;;;8.25;6.65;;;15.00;99.90;;;;;;5134178;27;20086;-64
2023/05/04 09:01:20;;;;;;;9.10;6.82;;;15.20;99.90;;;;;;5133502;27;20398;-63
2023/05/04 09:03:47;;;;;;;8.27;6.32;;;15.40;99.90;;;;;;5133845;27;20070;-62
2023/05/04 09:06:14;;;;;;;11.25;7.22;;;15.40;99.90;;;;;;5133753;27;20058;-64
2023/05/04 09:08:41;;;;;;;11.88;7.20;;;15.60;99.90;;;;;;5115454;27;20043;-64
2023/05/04 09:11:07;;;;;;;10.27;6.20;;;15.70;99.90;;;;;;5133266;27;20096;-63
2023/05/04 09:13:34;;;;;;;11.98;7.15;;;15.70;99.90;;;;;;5133726;27;21169;-62
2023/05/04 09:16:00;;;;;;;8.50;6.97;;;15.80;99.90;;;;;;5115250;28;20128;-64
2023/05/04 09:18:41;;;;;;;11.00;6.75;;;15.70;99.90;;;;;;5133254;27;20047;-63
2023/05/04 09:21:08;;;;;;;9.10;6.43;;;15.90;99.90;;;;;;5098309;27;20058;-64
2023/05/04 09:23:48;;;;;;;10.85;7.00;;;16.00;99.90;;;;;;5114985;27;20055;-63
2023/05/04 09:26:14;;;;;;;8.15;6.80;;;16.00;99.90;;;;;;5133517;27;20047;-63
2023/05/04 09:28:40;;;;;;;9.00;6.88;;;16.10;99.90;;;;;;5115446;27;20051;-63
2023/05/04 09:31:07;;;;;;;10.10;7.50;;;16.30;99.90;;;;;;5133219;27;20092;-63
2023/05/04 09:33:34;;;;;;;8.63;7.28;;;16.30;99.90;;;;;;5133185;27;20738;-63
2023/05/04 09:36:16;;;;;;;7.35;6.65;;;16.30;99.60;;;;;;5133403;27;20471;-64
2023/05/04 09:38:43;;;;;;;8.90;6.00;;;16.40;99.60;;;;;;5133430;27;20051;-63
2023/05/04 09:41:10;;;;;;;10.90;6.72;;;16.60;99.90;;;;;;5097895;27;20055;-64
2023/05/04 09:43:41;;;;;;;11.70;6.72;;;16.50;99.60;;;;;;5133077;27;20112;-63
2023/05/04 09:46:16;;;;;;;10.00;7.00;;;16.60;99.20;;;;;;5132937;27;20421;-63
2023/05/04 09:48:52;;;;;;;7.65;5.70;;;16.80;99.10;;;;;;5133340;27;20043;-62
2023/05/04 09:51:21;;;;;;;10.13;6.95;;;16.90;99.00;;;;;;5132787;28;20478;-64
2023/05/04 09:53:51;;;;;;;9.00;6.32;;;16.90;99.30;;;;;;5114611;28;20043;-63
2023/05/04 09:56:36;;;;;;;9.57;7.22;;;16.90;99.50;;;;;;5115399;28;20050;-64
2023/05/04 09:59:04;;;;;;;9.95;5.72;;;17.00;98.50;;;;;;5132890;28;20039;-64
2023/05/04 10:01:30;;;;;;;9.18;5.63;;;16.90;98.60;;;;;;5133338;28;20051;-64
2023/05/04 10:03:57;;;;;;;7.40;5.78;;;17.00;98.80;;;;;;5133015;28;20054;-64
2023/05/04 10:06:24;;;;;;;10.10;6.68;;;17.00;98.80;;;;;;5114660;28;20047;-64
2023/05/04 10:08:50;;;;;;;8.77;6.60;;;17.10;98.70;;;;;;5133177;28;20051;-64
2023/05/04 10:11:18;;;;;;;10.48;7.35;;;17.30;98.40;;;;;;5133072;28;20055;-63
2023/05/04 10:13:46;;;;;;;7.60;5.75;;;17.20;98.10;;;;;;5132845;28;20153;-64
2023/05/04 10:16:29;;;;;;;8.95;6.43;;;17.30;98.30;;;;;;5114809;28;20050;-63
2023/05/04 10:19:26;;;;;;;9.88;6.07;;;17.40;98.00;;;;;;5132777;28;20039;-63
2023/05/04 10:22:09;;;;;;;10.63;5.90;;;17.40;98.00;;;;;;5114667;28;20054;-64
2023/05/04 10:24:56;;;;;;;9.82;7.00;;;17.40;98.10;;;;;;5132875;28;20042;-64
2023/05/04 10:27:47;;;;;;;11.18;6.40;;;17.20;98.20;;;;;;5132751;27;20043;-63
2023/05/04 10:30:17;;;;;;;11.45;6.22;;;17.30;98.30;;;;;;5136628;27;20050;-64
2023/05/04 10:32:44;;;;;;;8.95;6.32;;;17.30;98.20;;;;;;5137065;27;20043;-64
2023/05/04 10:35:10;;;;;;;7.05;6.05;;;17.40;98.40;;;;;;5136390;27;20054;-65
2023/05/04 10:37:37;;;;;;;9.80;7.03;;;17.50;98.30;;;;;;5137336;27;20404;-65
2023/05/04 10:40:04;;;;;;;7.47;6.20;;;17.50;97.90;;;;;;5136417;27;20395;-63
2023/05/04 10:42:41;;;;;;;8.10;6.60;;;17.70;98.10;;;;;;5118808;27;20095;-64
2023/05/04 10:45:08;;;;;;;9.07;6.25;;;17.80;97.50;;;;;;5136697;27;20047;-65
2023/05/04 10:47:38;;;;;;;7.10;5.75;;;17.90;97.90;;;;;;5136789;27;20096;-63
2023/05/04 10:50:07;;;;;;;7.80;5.63;;;18.00;97.10;;;;;;5136015;27;20035;-63
2023/05/04 10:52:51;;;;;;;7.85;6.10;;;18.00;97.00;;;;;;5136802;27;20080;-64
2023/05/04 10:55:20;;;;;;;10.15;6.55;;;18.10;97.00;;;;;;5118534;27;20455;-64
2023/05/04 10:57:48;;;;;;;7.10;6.20;;;18.20;97.30;;;;;;5136506;27;20068;-64
2023/05/04 11:00:15;;;;;;;9.13;7.28;;;18.20;96.50;;;;;;5118101;27;20367;-64
2023/05/04 11:02:42;;;;;;;6.72;5.70;;;18.20;97.00;;;;;;5136594;27;20051;-64
2023/05/04 11:05:11;;;;;;;8.13;5.82;;;18.30;97.00;;;;;;5117949;27;20055;-64
2023/05/04 11:07:38;;;;;;;10.75;6.68;;;18.40;96.10;;;;;;5118704;27;20039;-63
2023/05/04 11:10:07;;;;;;;7.93;5.50;;;18.40;96.30;;;;;;5135981;27;20057;-63
2023/05/04 11:12:34;;;;;;;7.20;6.22;;;18.50;96.50;;;;;;5136510;27;20066;-64
2023/05/04 11:15:08;;;;;;;8.05;5.47;;;18.50;96.30;;;;;;5135881;27;20482;-64
2023/05/04 11:17:47;;;;;;;11.13;5.85;;;18.70;96.30;;;;;;5135808;27;20112;-65
2023/05/04 11:20:21;;;;;;;8.52;6.05;;;18.80;95.80;;;;;;5117262;27;20055;-63
2023/05/04 11:22:48;;;;;;;10.57;6.03;;;18.90;96.00;;;;;;5136222;27;20108;-64
2023/05/04 11:25:15;;;;;;;7.70;6.28;;;18.80;96.10;;;;;;5135731;27;20480;-60
2023/05/04 11:27:42;;;;;;;7.18;6.43;;;18.70;95.80;;;;;;5135424;27;20297;-63
2023/05/04 11:30:09;;;;;;;9.07;6.00;;;18.80;95.80;;;;;;5135542;27;20106;-61
2023/05/04 11:32:36;;;;;;;11.73;6.20;;;18.80;96.00;;;;;;5135842;27;20039;-64
2023/05/04 11:35:06;;;;;;;8.63;6.78;;;18.80;95.90;;;;;;5135629;27;20057;-63
2023/05/04 11:37:40;;;;;;;9.18;6.30;;;18.80;95.90;;;;;;5135527;27;20420;-63
2023/05/04 11:40:15;;;;;;;9.20;6.38;;;19.00;95.80;;;;;;5134302;27;20103;-62
2023/05/04 11:42:42;;;;;;;8.10;5.57;;;19.10;95.90;;;;;;5135832;27;20108;-62
2023/05/04 11:45:10;;;;;;;8.35;5.80;;;19.10;95.80;;;;;;5135584;27;20057;-62
2023/05/04 11:47:37;;;;;;;10.82;5.40;;;19.10;95.50;;;;;;5117204;27;20062;-62
2023/05/04 11:50:06;;;;;;;10.07;5.47;;;19.20;95.70;;;;;;5135322;27;20043;-63
2023/05/04 11:52:35;;;;;;;8.43;5.32;;;19.10;95.60;;;;;;5136560;27;20053;-62
2023/05/04 11:55:02;;;;;;;7.72;5.43;;;19.10;94.90;;;;;;5117482;27;20080;-62
2023/05/04 11:57:30;;;;;;;7.60;5.28;;;19.10;95.00;;;;;;5135726;27;20055;-63
2023/05/04 11:59:56;;;;;;;8.27;5.65;;;19.30;95.40;;;;;;5117176;27;20051;-63
2023/05/04 12:02:24;;;;;;;6.53;5.70;;;19.40;95.10;;;;;;5135626;27;20058;-63
2023/05/04 12:04:51;;;;;;;9.73;5.80;;;19.30;95.40;;;;;;5099856;27;20104;-63
2023/05/04 12:07:17;;;;;;;10.55;6.90;;;19.30;95.30;;;;;;5117186;27;20050;-63
2023/05/04 12:09:48;;;;;;;10.10;6.22;;;19.30;95.30;;;;;;5116822;27;20062;-62
2023/05/04 12:12:17;;;;;;;7.28;5.45;;;19.40;95.30;;;;;;5135145;27;20172;-63
2023/05/04 12:14:51;;;;;;;10.27;6.57;;;19.30;95.20;;;;;;5134859;27;20035;-63
2023/05/04 12:17:22;;;;;;;10.32;5.75;;;19.30;95.00;;;;;;5135204;27;20055;-63
2023/05/04 12:19:56;;;;;;;12.30;5.70;;;19.10;95.20;;;;;;5134657;27;20047;-63
2023/05/04 12:22:47;;;;;;;;;;;;;;;;;;;;;
2023/05/04 12:25:26;;;;;;;9.43;5.38;;;19.20;94.70;;;;;;5134661;27;20451;-63
2023/05/04 12:27:52;;;;;;;9.23;6.30;;;19.40;95.10;;;;;;5113189;28;20108;-63
2023/05/04 12:30:18;;;;;;;8.57;6.10;;;19.40;94.50;;;;;;5113946;28;20399;-63
2023/05/04 12:32:45;;;;;;;9.75;5.68;;;19.60;95.00;;;;;;5114349;28;20051;-64
2023/05/04 12:35:11;;;;;;;10.98;5.50;;;19.60;94.70;;;;;;5113697;28;20048;-64
2023/05/04 12:37:37;;;;;;;8.27;5.78;;;19.70;94.50;;;;;;5096201;28;20056;-62
2023/05/04 12:40:06;;;;;;;7.53;5.15;;;19.90;94.20;;;;;;5079062;28;20047;-64
2023/05/04 12:42:32;;;;;;;8.20;5.97;;;19.90;94.10;;;;;;5114206;28;20055;-64
2023/05/04 12:44:58;;;;;;;10.45;5.22;;;19.90;93.80;;;;;;5095974;28;20047;-63
2023/05/04 12:47:25;;;;;;;9.23;6.30;;;20.00;94.10;;;;;;5113964;28;20048;-64
2023/05/04 12:49:51;;;;;;;10.27;5.63;;;20.20;94.20;;;;;;5112142;28;20458;-64
2023/05/04 12:52:17;;;;;;;9.80;5.50;;;20.20;93.80;;;;;;5113054;28;20044;-64